sensor_id;sensor_type;location;lat;lon;timestamp;P1;durP1;ratioP1;P2;durP2;ratioP2
77449;SDS011;66536;53.150;18.172;2023-12-29T00:01:47;8.00;;;4.30;;
77449;SDS011;66536;53.150;18.172;2023-12-29T00:04:13;10.90;;;4.60;;
77449;SDS011;66536;53.150;18.172;2023-12-29T00:06:39;9.10;;;4.30;;
77449;SDS011;66536;53.150;18.172;2023-12-29T00:09:06;8.50;;;4.20;;
77449;SDS011;66536;53.150;18.172;2023-12-29T00:11:33;10.50;;;4.90;;
77449;SDS011;66536;53.150;18.172;2023-12-29T00:13:59;7.80;;;4.30;;
77449;SDS011;66536;53.150;18.172;2023-12-29T00:16:27;10.40;;;4.20;;
77449;SDS011;66536;53.150;18.172;2023-12-29T00:18:53;12.30;;;4.60;;
77449;SDS011;66536;53.150;18.172;2023-12-29T00:21:19;8.10;;;4.50;;
77449;SDS011;66536;53.150;18.172;2023-12-29T00:23:47;8.40;;;4.30;;
77449;SDS011;66536;53.150;18.172;2023-12-29T00:26:17;8.20;;;4.50;;
77449;SDS011;66536;53.150;18.172;2023-12-29T00:28:47;8.30;;;5.10;;
77449;SDS011;66536;53.150;18.172;2023-12-29T00:31:14;9.30;;;4.90;;
77449;SDS011;66536;53.150;18.172;2023-12-29T00:33:42;9.00;;;4.20;;
77449;SDS011;66536;53.150;18.172;2023-12-29T00:36:17;9.40;;;4.20;;
77449;SDS011;66536;53.150;18.172;2023-12-29T00:38:44;9.00;;;4.60;;
77449;SDS011;66536;53.150;18.172;2023-12-29T00:41:11;9.20;;;4.60;;
77449;SDS011;66536;53.150;18.172;2023-12-29T00:43:37;8.30;;;4.20;;
77449;SDS011;66536;53.150;18.172;2023-12-29T00:46:04;6.90;;;4.00;;
77449;SDS011;66536;53.150;18.172;2023-12-29T00:48:31;10.00;;;4.30;;
77449;SDS011;66536;53.150;18.172;2023-12-29T00:51:00;10.10;;;3.90;;
77449;SDS011;66536;53.150;18.172;2023-12-29T00:53:29;8.70;;;4.10;;
77449;SDS011;66536;53.150;18.172;2023-12-29T00:56:00;6.90;;;3.70;;
77449;SDS011;66536;53.150;18.172;2023-12-29T00:58:28;8.40;;;4.20;;
77449;SDS011;66536;53.150;18.172;2023-12-29T01:00:57;7.80;;;3.80;;
77449;SDS011;66536;53.150;18.172;2023-12-29T01:03:23;9.80;;;3.80;;
77449;SDS011;66536;53.150;18.172;2023-12-29T01:05:49;8.70;;;3.90;;
77449;SDS011;66536;53.150;18.172;2023-12-29T01:08:15;6.80;;;3.80;;
77449;SDS011;66536;53.150;18.172;2023-12-29T01:10:41;8.70;;;3.70;;
77449;SDS011;66536;53.150;18.172;2023-12-29T01:13:07;7.70;;;3.90;;
77449;SDS011;66536;53.150;18.172;2023-12-29T01:15:34;7.80;;;4.00;;
77449;SDS011;66536;53.150;18.172;2023-12-29T01:18:00;7.40;;;3.60;;
77449;SDS011;66536;53.150;18.172;2023-12-29T01:20:27;8.60;;;4.00;;
77449;SDS011;66536;53.150;18.172;2023-12-29T01:22:53;11.30;;;4.30;;
77449;SDS011;66536;53.150;18.172;2023-12-29T01:25:26;10.20;;;4.30;;
77449;SDS011;66536;53.150;18.172;2023-12-29T01:27:55;8.30;;;4.40;;
77449;SDS011;66536;53.150;18.172;2023-12-29T01:30:39;16.30;;;6.20;;
77449;SDS011;66536;53.150;18.172;2023-12-29T01:33:06;9.60;;;4.70;;
77449;SDS011;66536;53.150;18.172;2023-12-29T01:35:35;11.40;;;4.70;;
77449;SDS011;66536;53.150;18.172;2023-12-29T01:38:02;8.50;;;4.10;;
77449;SDS011;66536;53.150;18.172;2023-12-29T01:40:32;9.60;;;4.20;;
77449;SDS011;66536;53.150;18.172;2023-12-29T01:43:07;8.70;;;4.10;;
77449;SDS011;66536;53.150;18.172;2023-12-29T01:45:33;16.20;;;7.50;;
77449;SDS011;66536;53.150;18.172;2023-12-29T01:48:06;11.30;;;5.90;;
77449;SDS011;66536;53.150;18.172;2023-12-29T01:50:34;7.90;;;4.20;;
77449;SDS011;66536;53.150;18.172;2023-12-29T01:53:01;8.50;;;4.00;;
77449;SDS011;66536;53.150;18.172;2023-12-29T01:55:31;9.20;;;4.10;;
77449;SDS011;66536;53.150;18.172;2023-12-29T01:57:58;7.10;;;3.70;;
77449;SDS011;66536;53.150;18.172;2023-12-29T02:00:24;8.30;;;4.00;;
77449;SDS011;66536;53.150;18.172;2023-12-29T02:02:52;9.60;;;4.00;;
77449;SDS011;66536;53.150;18.172;2023-12-29T02:05:20;8.10;;;4.00;;
77449;SDS011;66536;53.150;18.172;2023-12-29T02:07:51;10.00;;;3.70;;
77449;SDS011;66536;53.150;18.172;2023-12-29T02:10:18;7.90;;;4.00;;
77449;SDS011;66536;53.150;18.172;2023-12-29T02:12:46;8.40;;;4.00;;
77449;SDS011;66536;53.150;18.172;2023-12-29T02:15:15;6.90;;;4.20;;
77449;SDS011;66536;53.150;18.172;2023-12-29T02:17:44;6.00;;;3.60;;
77449;SDS011;66536;53.150;18.172;2023-12-29T02:20:16;6.40;;;3.70;;
77449;SDS011;66536;53.150;18.172;2023-12-29T02:22:43;8.60;;;3.60;;
77449;SDS011;66536;53.150;18.172;2023-12-29T02:25:09;7.00;;;3.60;;
77449;SDS011;66536;53.150;18.172;2023-12-29T02:30:20;6.50;;;3.80;;
77449;SDS011;66536;53.150;18.172;2023-12-29T02:32:54;6.80;;;3.30;;
77449;SDS011;66536;53.150;18.172;2023-12-29T02:35:26;7.50;;;4.00;;
77449;SDS011;66536;53.150;18.172;2023-12-29T02:37:55;9.80;;;3.60;;
77449;SDS011;66536;53.150;18.172;2023-12-29T02:40:25;8.30;;;4.20;;
77449;SDS011;66536;53.150;18.172;2023-12-29T02:42:52;8.20;;;4.10;;
77449;SDS011;66536;53.150;18.172;2023-12-29T02:45:18;7.00;;;3.60;;
77449;SDS011;66536;53.150;18.172;2023-12-29T02:47:44;13.00;;;4.10;;
77449;SDS011;66536;53.150;18.172;2023-12-29T02:50:11;8.20;;;3.60;;
77449;SDS011;66536;53.150;18.172;2023-12-29T02:52:37;6.30;;;3.90;;
77449;SDS011;66536;53.150;18.172;2023-12-29T02:55:03;8.50;;;4.10;;
77449;SDS011;66536;53.150;18.172;2023-12-29T02:57:30;8.80;;;3.80;;
77449;SDS011;66536;53.150;18.172;2023-12-29T02:59:58;9.60;;;4.10;;
77449;SDS011;66536;53.150;18.172;2023-12-29T03:02:24;7.00;;;4.00;;
77449;SDS011;66536;53.150;18.172;2023-12-29T03:04:51;7.80;;;3.70;;
77449;SDS011;66536;53.150;18.172;2023-12-29T03:07:17;8.50;;;3.80;;
77449;SDS011;66536;53.150;18.172;2023-12-29T03:09:46;8.10;;;4.00;;
77449;SDS011;66536;53.150;18.172;2023-12-29T03:12:12;6.70;;;3.90;;
77449;SDS011;66536;53.150;18.172;2023-12-29T03:14:39;7.20;;;3.80;;
77449;SDS011;66536;53.150;18.172;2023-12-29T03:17:05;5.80;;;3.30;;
77449;SDS011;66536;53.150;18.172;2023-12-29T03:19:31;8.00;;;3.90;;
77449;SDS011;66536;53.150;18.172;2023-12-29T03:21:58;8.70;;;3.80;;
77449;SDS011;66536;53.150;18.172;2023-12-29T03:24:24;7.80;;;4.10;;
77449;SDS011;66536;53.150;18.172;2023-12-29T03:26:50;8.40;;;3.90;;
77449;SDS011;66536;53.150;18.172;2023-12-29T03:29:16;8.70;;;4.00;;
77449;SDS011;66536;53.150;18.172;2023-12-29T03:31:42;7.80;;;3.30;;
77449;SDS011;66536;53.150;18.172;2023-12-29T03:34:08;6.60;;;3.50;;
77449;SDS011;66536;53.150;18.172;2023-12-29T03:36:34;9.20;;;3.90;;
77449;SDS011;66536;53.150;18.172;2023-12-29T03:39:01;6.00;;;3.50;;
77449;SDS011;66536;53.150;18.172;2023-12-29T03:41:28;6.20;;;3.00;;
77449;SDS011;66536;53.150;18.172;2023-12-29T03:43:55;8.40;;;3.60;;
77449;SDS011;66536;53.150;18.172;2023-12-29T03:46:22;7.70;;;3.70;;
77449;SDS011;66536;53.150;18.172;2023-12-29T03:48:50;8.50;;;3.40;;
77449;SDS011;66536;53.150;18.172;2023-12-29T03:51:16;6.80;;;3.60;;
77449;SDS011;66536;53.150;18.172;2023-12-29T03:53:43;6.00;;;3.00;;
77449;SDS011;66536;53.150;18.172;2023-12-29T03:56:17;5.70;;;3.00;;
77449;SDS011;66536;53.150;18.172;2023-12-29T03:58:44;6.40;;;3.50;;
77449;SDS011;66536;53.150;18.172;2023-12-29T04:01:12;6.40;;;3.30;;
77449;SDS011;66536;53.150;18.172;2023-12-29T04:03:40;7.10;;;3.50;;
77449;SDS011;66536;53.150;18.172;2023-12-29T04:06:07;6.70;;;3.40;;
77449;SDS011;66536;53.150;18.172;2023-12-29T04:08:34;5.50;;;3.50;;
77449;SDS011;66536;53.150;18.172;2023-12-29T04:11:00;6.20;;;3.10;;
77449;SDS011;66536;53.150;18.172;2023-12-29T04:13:27;5.40;;;3.30;;
77449;SDS011;66536;53.150;18.172;2023-12-29T04:15:53;5.90;;;3.20;;
77449;SDS011;66536;53.150;18.172;2023-12-29T04:18:20;5.10;;;3.10;;
77449;SDS011;66536;53.150;18.172;2023-12-29T04:20:48;7.20;;;3.10;;
77449;SDS011;66536;53.150;18.172;2023-12-29T04:23:14;5.50;;;3.20;;
77449;SDS011;66536;53.150;18.172;2023-12-29T04:25:41;4.40;;;2.80;;
77449;SDS011;66536;53.150;18.172;2023-12-29T04:28:07;5.70;;;2.70;;
77449;SDS011;66536;53.150;18.172;2023-12-29T04:30:34;4.80;;;2.80;;
77449;SDS011;66536;53.150;18.172;2023-12-29T04:33:01;6.30;;;3.30;;
77449;SDS011;66536;53.150;18.172;2023-12-29T04:35:27;4.30;;;2.60;;
77449;SDS011;66536;53.150;18.172;2023-12-29T04:37:53;5.10;;;2.70;;
77449;SDS011;66536;53.150;18.172;2023-12-29T04:40:19;4.70;;;2.70;;
77449;SDS011;66536;53.150;18.172;2023-12-29T04:42:45;6.20;;;3.00;;
77449;SDS011;66536;53.150;18.172;2023-12-29T04:45:11;6.30;;;3.00;;
77449;SDS011;66536;53.150;18.172;2023-12-29T04:47:37;4.90;;;2.40;;
77449;SDS011;66536;53.150;18.172;2023-12-29T04:50:04;5.80;;;2.80;;
77449;SDS011;66536;53.150;18.172;2023-12-29T04:52:32;5.90;;;3.10;;
77449;SDS011;66536;53.150;18.172;2023-12-29T04:54:58;5.60;;;3.50;;
77449;SDS011;66536;53.150;18.172;2023-12-29T04:57:24;6.70;;;2.90;;
77449;SDS011;66536;53.150;18.172;2023-12-29T04:59:50;4.70;;;2.50;;
77449;SDS011;66536;53.150;18.172;2023-12-29T05:02:16;4.30;;;2.70;;
77449;SDS011;66536;53.150;18.172;2023-12-29T05:04:42;4.40;;;2.50;;
77449;SDS011;66536;53.150;18.172;2023-12-29T05:07:08;4.10;;;2.50;;
77449;SDS011;66536;53.150;18.172;2023-12-29T05:09:35;6.40;;;2.80;;
77449;SDS011;66536;53.150;18.172;2023-12-29T05:12:01;7.40;;;2.80;;
77449;SDS011;66536;53.150;18.172;2023-12-29T05:14:28;4.70;;;2.60;;
77449;SDS011;66536;53.150;18.172;2023-12-29T05:16:54;6.20;;;3.40;;
77449;SDS011;66536;53.150;18.172;2023-12-29T05:19:20;7.80;;;4.00;;
77449;SDS011;66536;53.150;18.172;2023-12-29T05:21:46;5.60;;;3.00;;
77449;SDS011;66536;53.150;18.172;2023-12-29T05:24:12;5.90;;;3.00;;
77449;SDS011;66536;53.150;18.172;2023-12-29T05:26:38;4.70;;;2.30;;
77449;SDS011;66536;53.150;18.172;2023-12-29T05:29:04;4.20;;;2.40;;
77449;SDS011;66536;53.150;18.172;2023-12-29T05:31:30;3.50;;;2.30;;
77449;SDS011;66536;53.150;18.172;2023-12-29T05:33:56;5.30;;;2.30;;
77449;SDS011;66536;53.150;18.172;2023-12-29T05:36:22;6.20;;;2.80;;
77449;SDS011;66536;53.150;18.172;2023-12-29T05:38:48;5.50;;;3.00;;
77449;SDS011;66536;53.150;18.172;2023-12-29T05:41:15;4.90;;;2.30;;
77449;SDS011;66536;53.150;18.172;2023-12-29T05:43:41;6.50;;;2.60;;
77449;SDS011;66536;53.150;18.172;2023-12-29T05:46:09;4.50;;;2.40;;
77449;SDS011;66536;53.150;18.172;2023-12-29T05:48:39;7.00;;;2.60;;
77449;SDS011;66536;53.150;18.172;2023-12-29T05:51:08;6.40;;;3.00;;
77449;SDS011;66536;53.150;18.172;2023-12-29T05:53:35;6.80;;;2.50;;
77449;SDS011;66536;53.150;18.172;2023-12-29T05:56:01;7.00;;;2.40;;
77449;SDS011;66536;53.150;18.172;2023-12-29T05:58:27;5.30;;;2.40;;
77449;SDS011;66536;53.150;18.172;2023-12-29T06:00:54;4.40;;;2.20;;
77449;SDS011;66536;53.150;18.172;2023-12-29T06:03:21;7.20;;;2.20;;
77449;SDS011;66536;53.150;18.172;2023-12-29T06:05:48;5.20;;;2.40;;
77449;SDS011;66536;53.150;18.172;2023-12-29T06:08:14;5.90;;;3.00;;
77449;SDS011;66536;53.150;18.172;2023-12-29T06:10:40;3.60;;;2.40;;
77449;SDS011;66536;53.150;18.172;2023-12-29T06:13:06;4.70;;;2.20;;
77449;SDS011;66536;53.150;18.172;2023-12-29T06:15:32;5.50;;;3.10;;
77449;SDS011;66536;53.150;18.172;2023-12-29T06:17:59;3.60;;;2.30;;
77449;SDS011;66536;53.150;18.172;2023-12-29T06:20:25;3.60;;;2.40;;
77449;SDS011;66536;53.150;18.172;2023-12-29T06:22:51;3.90;;;2.60;;
77449;SDS011;66536;53.150;18.172;2023-12-29T06:25:17;7.10;;;2.70;;
77449;SDS011;66536;53.150;18.172;2023-12-29T06:27:43;5.10;;;2.40;;
77449;SDS011;66536;53.150;18.172;2023-12-29T06:30:09;5.30;;;2.30;;
77449;SDS011;66536;53.150;18.172;2023-12-29T06:32:37;6.50;;;2.60;;
77449;SDS011;66536;53.150;18.172;2023-12-29T06:35:03;5.90;;;2.30;;
77449;SDS011;66536;53.150;18.172;2023-12-29T06:37:30;5.80;;;3.00;;
77449;SDS011;66536;53.150;18.172;2023-12-29T06:39:57;6.90;;;3.00;;
77449;SDS011;66536;53.150;18.172;2023-12-29T06:42:23;6.40;;;2.80;;
77449;SDS011;66536;53.150;18.172;2023-12-29T06:44:49;6.20;;;2.90;;
77449;SDS011;66536;53.150;18.172;2023-12-29T06:47:18;6.30;;;3.50;;
77449;SDS011;66536;53.150;18.172;2023-12-29T06:49:44;15.00;;;6.10;;
77449;SDS011;66536;53.150;18.172;2023-12-29T06:52:10;7.00;;;4.30;;
77449;SDS011;66536;53.150;18.172;2023-12-29T06:54:36;6.50;;;3.70;;
77449;SDS011;66536;53.150;18.172;2023-12-29T06:57:03;13.10;;;3.20;;
77449;SDS011;66536;53.150;18.172;2023-12-29T06:59:29;8.20;;;3.50;;
77449;SDS011;66536;53.150;18.172;2023-12-29T07:01:56;4.70;;;2.50;;
77449;SDS011;66536;53.150;18.172;2023-12-29T07:04:22;6.50;;;3.30;;
77449;SDS011;66536;53.150;18.172;2023-12-29T07:06:48;6.50;;;2.50;;
77449;SDS011;66536;53.150;18.172;2023-12-29T07:09:15;5.80;;;3.00;;
77449;SDS011;66536;53.150;18.172;2023-12-29T07:11:41;5.00;;;2.80;;
77449;SDS011;66536;53.150;18.172;2023-12-29T07:14:07;3.50;;;2.20;;
77449;SDS011;66536;53.150;18.172;2023-12-29T07:16:33;5.20;;;2.30;;
77449;SDS011;66536;53.150;18.172;2023-12-29T07:18:59;4.90;;;2.20;;
77449;SDS011;66536;53.150;18.172;2023-12-29T07:21:25;3.80;;;2.40;;
77449;SDS011;66536;53.150;18.172;2023-12-29T07:23:51;5.50;;;2.90;;
77449;SDS011;66536;53.150;18.172;2023-12-29T07:26:17;5.60;;;3.30;;
77449;SDS011;66536;53.150;18.172;2023-12-29T07:28:43;5.80;;;3.20;;
77449;SDS011;66536;53.150;18.172;2023-12-29T07:31:09;6.00;;;2.60;;
77449;SDS011;66536;53.150;18.172;2023-12-29T07:33:35;5.80;;;2.60;;
77449;SDS011;66536;53.150;18.172;2023-12-29T07:36:01;4.70;;;2.90;;
77449;SDS011;66536;53.150;18.172;2023-12-29T07:38:28;5.00;;;2.80;;
77449;SDS011;66536;53.150;18.172;2023-12-29T07:40:54;5.50;;;2.90;;
77449;SDS011;66536;53.150;18.172;2023-12-29T07:43:20;4.10;;;2.70;;
77449;SDS011;66536;53.150;18.172;2023-12-29T07:45:46;7.60;;;3.80;;
77449;SDS011;66536;53.150;18.172;2023-12-29T07:48:12;11.00;;;3.00;;
77449;SDS011;66536;53.150;18.172;2023-12-29T07:50:38;5.70;;;2.80;;
77449;SDS011;66536;53.150;18.172;2023-12-29T07:53:04;6.20;;;3.70;;
77449;SDS011;66536;53.150;18.172;2023-12-29T07:55:31;4.70;;;3.40;;
77449;SDS011;66536;53.150;18.172;2023-12-29T07:57:57;9.40;;;4.40;;
77449;SDS011;66536;53.150;18.172;2023-12-29T08:00:24;12.80;;;6.30;;
77449;SDS011;66536;53.150;18.172;2023-12-29T08:02:50;11.90;;;5.00;;
77449;SDS011;66536;53.150;18.172;2023-12-29T08:05:17;7.70;;;4.10;;
77449;SDS011;66536;53.150;18.172;2023-12-29T08:07:44;12.10;;;5.70;;
77449;SDS011;66536;53.150;18.172;2023-12-29T08:10:12;9.60;;;4.90;;
77449;SDS011;66536;53.150;18.172;2023-12-29T08:12:38;14.20;;;6.90;;
77449;SDS011;66536;53.150;18.172;2023-12-29T08:15:07;6.70;;;3.30;;
77449;SDS011;66536;53.150;18.172;2023-12-29T08:17:33;5.40;;;3.40;;
77449;SDS011;66536;53.150;18.172;2023-12-29T08:19:59;12.10;;;3.80;;
77449;SDS011;66536;53.150;18.172;2023-12-29T08:22:29;8.10;;;4.10;;
77449;SDS011;66536;53.150;18.172;2023-12-29T08:24:55;9.40;;;4.10;;
77449;SDS011;66536;53.150;18.172;2023-12-29T08:27:23;7.60;;;3.60;;
77449;SDS011;66536;53.150;18.172;2023-12-29T08:29:51;5.30;;;3.20;;
77449;SDS011;66536;53.150;18.172;2023-12-29T08:32:19;7.20;;;3.60;;
77449;SDS011;66536;53.150;18.172;2023-12-29T08:34:46;9.70;;;4.60;;
77449;SDS011;66536;53.150;18.172;2023-12-29T08:37:12;13.30;;;5.40;;
77449;SDS011;66536;53.150;18.172;2023-12-29T08:39:46;10.50;;;3.70;;
77449;SDS011;66536;53.150;18.172;2023-12-29T08:42:13;6.30;;;2.70;;
77449;SDS011;66536;53.150;18.172;2023-12-29T08:44:40;12.00;;;3.90;;
77449;SDS011;66536;53.150;18.172;2023-12-29T08:47:06;12.60;;;4.50;;
77449;SDS011;66536;53.150;18.172;2023-12-29T08:49:34;10.40;;;3.60;;
77449;SDS011;66536;53.150;18.172;2023-12-29T08:52:02;12.30;;;4.30;;
77449;SDS011;66536;53.150;18.172;2023-12-29T08:54:29;8.20;;;3.60;;
77449;SDS011;66536;53.150;18.172;2023-12-29T08:56:55;11.40;;;4.70;;
77449;SDS011;66536;53.150;18.172;2023-12-29T08:59:21;11.40;;;4.50;;
77449;SDS011;66536;53.150;18.172;2023-12-29T09:01:47;10.40;;;4.60;;
77449;SDS011;66536;53.150;18.172;2023-12-29T09:04:13;13.20;;;5.10;;
77449;SDS011;66536;53.150;18.172;2023-12-29T09:06:39;10.70;;;4.60;;
77449;SDS011;66536;53.150;18.172;2023-12-29T09:09:05;9.20;;;3.90;;
77449;SDS011;66536;53.150;18.172;2023-12-29T09:11:31;8.90;;;3.70;;
77449;SDS011;66536;53.150;18.172;2023-12-29T09:13:57;10.50;;;4.40;;
77449;SDS011;66536;53.150;18.172;2023-12-29T09:16:23;10.40;;;3.50;;
77449;SDS011;66536;53.150;18.172;2023-12-29T09:18:49;11.60;;;4.50;;
77449;SDS011;66536;53.150;18.172;2023-12-29T09:21:15;14.50;;;7.00;;
77449;SDS011;66536;53.150;18.172;2023-12-29T09:23:41;13.00;;;5.30;;
77449;SDS011;66536;53.150;18.172;2023-12-29T09:26:08;12.30;;;4.60;;
77449;SDS011;66536;53.150;18.172;2023-12-29T09:28:37;10.30;;;3.40;;
77449;SDS011;66536;53.150;18.172;2023-12-29T09:31:03;13.70;;;5.00;;
77449;SDS011;66536;53.150;18.172;2023-12-29T09:33:30;8.10;;;3.00;;
77449;SDS011;66536;53.150;18.172;2023-12-29T09:35:58;16.30;;;3.50;;
77449;SDS011;66536;53.150;18.172;2023-12-29T09:38:24;11.80;;;4.30;;
77449;SDS011;66536;53.150;18.172;2023-12-29T09:40:51;6.30;;;2.80;;
77449;SDS011;66536;53.150;18.172;2023-12-29T09:43:19;9.90;;;3.30;;
77449;SDS011;66536;53.150;18.172;2023-12-29T09:45:45;11.20;;;4.30;;
77449;SDS011;66536;53.150;18.172;2023-12-29T09:48:13;7.10;;;2.90;;
77449;SDS011;66536;53.150;18.172;2023-12-29T09:50:42;7.80;;;2.60;;
77449;SDS011;66536;53.150;18.172;2023-12-29T09:53:10;11.20;;;3.20;;
77449;SDS011;66536;53.150;18.172;2023-12-29T09:55:38;4.80;;;2.40;;
77449;SDS011;66536;53.150;18.172;2023-12-29T09:58:07;10.50;;;3.70;;
77449;SDS011;66536;53.150;18.172;2023-12-29T10:00:34;11.80;;;4.80;;
77449;SDS011;66536;53.150;18.172;2023-12-29T10:03:00;4.50;;;2.30;;
77449;SDS011;66536;53.150;18.172;2023-12-29T10:05:27;8.60;;;2.80;;
77449;SDS011;66536;53.150;18.172;2023-12-29T10:07:59;9.20;;;2.90;;
77449;SDS011;66536;53.150;18.172;2023-12-29T10:10:29;12.90;;;4.30;;
77449;SDS011;66536;53.150;18.172;2023-12-29T10:12:56;7.60;;;3.00;;
77449;SDS011;66536;53.150;18.172;2023-12-29T10:15:29;7.30;;;3.00;;
77449;SDS011;66536;53.150;18.172;2023-12-29T10:18:07;8.40;;;3.40;;
77449;SDS011;66536;53.150;18.172;2023-12-29T10:20:50;6.30;;;2.40;;
77449;SDS011;66536;53.150;18.172;2023-12-29T10:23:36;9.80;;;3.60;;
77449;SDS011;66536;53.150;18.172;2023-12-29T10:26:11;6.70;;;2.60;;
77449;SDS011;66536;53.150;18.172;2023-12-29T10:28:37;6.20;;;2.80;;
77449;SDS011;66536;53.150;18.172;2023-12-29T10:31:04;16.10;;;7.10;;
77449;SDS011;66536;53.150;18.172;2023-12-29T10:33:30;7.90;;;3.40;;
77449;SDS011;66536;53.150;18.172;2023-12-29T10:35:58;10.10;;;3.40;;
77449;SDS011;66536;53.150;18.172;2023-12-29T10:38:29;9.60;;;3.80;;
77449;SDS011;66536;53.150;18.172;2023-12-29T10:43:38;4.10;;;1.90;;
77449;SDS011;66536;53.150;18.172;2023-12-29T10:46:05;5.00;;;1.90;;
77449;SDS011;66536;53.150;18.172;2023-12-29T10:48:35;7.20;;;2.80;;
77449;SDS011;66536;53.150;18.172;2023-12-29T10:51:02;5.50;;;2.20;;
77449;SDS011;66536;53.150;18.172;2023-12-29T10:53:30;7.20;;;3.60;;
77449;SDS011;66536;53.150;18.172;2023-12-29T10:55:58;5.30;;;3.00;;
77449;SDS011;66536;53.150;18.172;2023-12-29T10:58:26;8.00;;;3.00;;
77449;SDS011;66536;53.150;18.172;2023-12-29T11:00:55;4.80;;;2.00;;
77449;SDS011;66536;53.150;18.172;2023-12-29T11:03:22;5.10;;;2.20;;
77449;SDS011;66536;53.150;18.172;2023-12-29T11:05:50;4.70;;;2.10;;
77449;SDS011;66536;53.150;18.172;2023-12-29T11:08:26;7.50;;;2.80;;
77449;SDS011;66536;53.150;18.172;2023-12-29T11:10:52;6.40;;;3.00;;
77449;SDS011;66536;53.150;18.172;2023-12-29T11:13:21;6.90;;;2.90;;
77449;SDS011;66536;53.150;18.172;2023-12-29T11:15:47;6.20;;;2.40;;
77449;SDS011;66536;53.150;18.172;2023-12-29T11:18:14;7.20;;;3.00;;
77449;SDS011;66536;53.150;18.172;2023-12-29T11:20:43;5.20;;;2.40;;
77449;SDS011;66536;53.150;18.172;2023-12-29T11:23:10;4.50;;;1.90;;
77449;SDS011;66536;53.150;18.172;2023-12-29T11:25:39;3.80;;;1.80;;
77449;SDS011;66536;53.150;18.172;2023-12-29T11:28:08;7.70;;;2.70;;
77449;SDS011;66536;53.150;18.172;2023-12-29T11:30:37;4.60;;;2.10;;
77449;SDS011;66536;53.150;18.172;2023-12-29T11:33:12;5.50;;;2.30;;
77449;SDS011;66536;53.150;18.172;2023-12-29T11:35:48;10.00;;;2.70;;
77449;SDS011;66536;53.150;18.172;2023-12-29T11:38:29;5.10;;;2.10;;
77449;SDS011;66536;53.150;18.172;2023-12-29T11:41:11;7.00;;;2.60;;
77449;SDS011;66536;53.150;18.172;2023-12-29T11:43:45;5.80;;;2.40;;
77449;SDS011;66536;53.150;18.172;2023-12-29T11:49:11;6.70;;;3.10;;
77449;SDS011;66536;53.150;18.172;2023-12-29T11:51:41;8.80;;;3.70;;
77449;SDS011;66536;53.150;18.172;2023-12-29T11:54:09;5.50;;;2.50;;
77449;SDS011;66536;53.150;18.172;2023-12-29T11:56:37;5.60;;;2.50;;
77449;SDS011;66536;53.150;18.172;2023-12-29T11:59:14;3.40;;;1.90;;
77449;SDS011;66536;53.150;18.172;2023-12-29T12:01:46;4.50;;;2.30;;
77449;SDS011;66536;53.150;18.172;2023-12-29T12:07:03;5.30;;;2.60;;
77449;SDS011;66536;53.150;18.172;2023-12-29T12:09:29;7.50;;;2.40;;
77449;SDS011;66536;53.150;18.172;2023-12-29T12:11:56;4.40;;;1.90;;
77449;SDS011;66536;53.150;18.172;2023-12-29T12:17:08;5.70;;;2.20;;
77449;SDS011;66536;53.150;18.172;2023-12-29T12:19:35;3.60;;;1.90;;
77449;SDS011;66536;53.150;18.172;2023-12-29T12:22:01;4.10;;;1.90;;
77449;SDS011;66536;53.150;18.172;2023-12-29T12:24:28;10.60;;;1.50;;
77449;SDS011;66536;53.150;18.172;2023-12-29T12:26:56;4.80;;;1.80;;
77449;SDS011;66536;53.150;18.172;2023-12-29T12:29:23;4.50;;;1.60;;
77449;SDS011;66536;53.150;18.172;2023-12-29T12:31:55;5.90;;;1.60;;
77449;SDS011;66536;53.150;18.172;2023-12-29T12:34:22;4.80;;;1.70;;
77449;SDS011;66536;53.150;18.172;2023-12-29T12:36:50;4.00;;;2.00;;
77449;SDS011;66536;53.150;18.172;2023-12-29T12:39:17;8.60;;;3.20;;
77449;SDS011;66536;53.150;18.172;2023-12-29T12:41:44;6.00;;;2.40;;
77449;SDS011;66536;53.150;18.172;2023-12-29T12:44:11;7.90;;;3.30;;
77449;SDS011;66536;53.150;18.172;2023-12-29T12:46:44;9.40;;;3.30;;
77449;SDS011;66536;53.150;18.172;2023-12-29T12:49:17;6.30;;;2.70;;
77449;SDS011;66536;53.150;18.172;2023-12-29T12:51:45;9.40;;;3.00;;
77449;SDS011;66536;53.150;18.172;2023-12-29T12:54:11;11.40;;;2.90;;
77449;SDS011;66536;53.150;18.172;2023-12-29T12:56:43;8.30;;;2.80;;
77449;SDS011;66536;53.150;18.172;2023-12-29T12:59:10;9.50;;;3.90;;
77449;SDS011;66536;53.150;18.172;2023-12-29T13:01:37;6.00;;;2.30;;
77449;SDS011;66536;53.150;18.172;2023-12-29T13:04:04;6.80;;;2.80;;
77449;SDS011;66536;53.150;18.172;2023-12-29T13:06:32;6.00;;;2.60;;
77449;SDS011;66536;53.150;18.172;2023-12-29T13:09:00;9.20;;;3.10;;
77449;SDS011;66536;53.150;18.172;2023-12-29T13:11:35;18.80;;;3.70;;
77449;SDS011;66536;53.150;18.172;2023-12-29T13:14:02;4.70;;;2.30;;
77449;SDS011;66536;53.150;18.172;2023-12-29T13:16:31;11.60;;;5.20;;
77449;SDS011;66536;53.150;18.172;2023-12-29T13:21:48;6.30;;;2.40;;
77449;SDS011;66536;53.150;18.172;2023-12-29T13:24:16;10.00;;;3.50;;
77449;SDS011;66536;53.150;18.172;2023-12-29T13:26:44;7.60;;;4.00;;
77449;SDS011;66536;53.150;18.172;2023-12-29T13:29:18;4.90;;;2.50;;
77449;SDS011;66536;53.150;18.172;2023-12-29T13:31:48;8.70;;;2.70;;
77449;SDS011;66536;53.150;18.172;2023-12-29T13:34:17;7.30;;;2.90;;
77449;SDS011;66536;53.150;18.172;2023-12-29T13:36:57;5.80;;;2.30;;
77449;SDS011;66536;53.150;18.172;2023-12-29T13:39:36;5.60;;;2.30;;
77449;SDS011;66536;53.150;18.172;2023-12-29T13:42:07;8.30;;;2.50;;
77449;SDS011;66536;53.150;18.172;2023-12-29T13:44:36;6.00;;;2.10;;
77449;SDS011;66536;53.150;18.172;2023-12-29T13:47:06;6.90;;;2.60;;
77449;SDS011;66536;53.150;18.172;2023-12-29T13:49:33;7.90;;;3.20;;
77449;SDS011;66536;53.150;18.172;2023-12-29T13:52:02;7.80;;;3.50;;
77449;SDS011;66536;53.150;18.172;2023-12-29T13:54:29;11.80;;;3.60;;
77449;SDS011;66536;53.150;18.172;2023-12-29T13:56:56;6.90;;;2.70;;
77449;SDS011;66536;53.150;18.172;2023-12-29T13:59:30;7.60;;;2.70;;
77449;SDS011;66536;53.150;18.172;2023-12-29T14:01:59;7.30;;;2.20;;
77449;SDS011;66536;53.150;18.172;2023-12-29T14:04:41;7.90;;;2.40;;
77449;SDS011;66536;53.150;18.172;2023-12-29T14:07:08;5.90;;;2.20;;
77449;SDS011;66536;53.150;18.172;2023-12-29T14:09:35;9.90;;;3.90;;
77449;SDS011;66536;53.150;18.172;2023-12-29T14:12:02;8.00;;;3.10;;
77449;SDS011;66536;53.150;18.172;2023-12-29T14:14:29;8.00;;;2.20;;
77449;SDS011;66536;53.150;18.172;2023-12-29T14:16:57;8.00;;;2.30;;
77449;SDS011;66536;53.150;18.172;2023-12-29T14:19:23;7.80;;;2.20;;
77449;SDS011;66536;53.150;18.172;2023-12-29T14:21:53;6.60;;;2.10;;
77449;SDS011;66536;53.150;18.172;2023-12-29T14:24:21;6.40;;;2.60;;
77449;SDS011;66536;53.150;18.172;2023-12-29T14:26:55;6.30;;;2.30;;
77449;SDS011;66536;53.150;18.172;2023-12-29T14:29:23;6.60;;;2.80;;
77449;SDS011;66536;53.150;18.172;2023-12-29T14:31:49;10.00;;;5.00;;
77449;SDS011;66536;53.150;18.172;2023-12-29T14:34:18;10.20;;;4.40;;
77449;SDS011;66536;53.150;18.172;2023-12-29T14:36:45;10.60;;;3.70;;
77449;SDS011;66536;53.150;18.172;2023-12-29T14:39:12;10.40;;;3.40;;
77449;SDS011;66536;53.150;18.172;2023-12-29T14:41:39;5.40;;;3.20;;
77449;SDS011;66536;53.150;18.172;2023-12-29T14:44:05;7.90;;;3.00;;
77449;SDS011;66536;53.150;18.172;2023-12-29T14:46:32;6.80;;;2.60;;
77449;SDS011;66536;53.150;18.172;2023-12-29T14:49:02;8.10;;;3.50;;
77449;SDS011;66536;53.150;18.172;2023-12-29T14:51:29;8.00;;;2.80;;
77449;SDS011;66536;53.150;18.172;2023-12-29T14:53:55;11.70;;;3.90;;